createdAt,value
2018-12-01T00:00:27.058Z,1.06
2018-12-01T00:01:27.039Z,1.04
2018-12-01T00:02:27.028Z,1.06
2018-12-01T00:03:27.024Z,1.10
2018-12-01T00:04:27.005Z,1.14
2018-12-01T00:05:27.019Z,1.04
2018-12-01T00:06:26.995Z,1.11
2018-12-01T00:07:26.972Z,1.17
2018-12-01T00:08:26.962Z,1.08
2018-12-01T00:09:26.953Z,1.14
2018-12-01T00:10:26.967Z,1.08
2018-12-01T00:11:26.942Z,1.06
2018-12-01T00:12:26.933Z,1.10
2018-12-01T00:13:26.915Z,1.07
2018-12-01T00:14:26.904Z,1.10
2018-12-01T00:15:26.917Z,1.13
2018-12-01T00:16:26.882Z,1.10
2018-12-01T00:17:26.876Z,1.17
2018-12-01T00:18:26.857Z,1.07
2018-12-01T00:19:26.847Z,1.10
2018-12-01T00:20:26.841Z,1.11
2018-12-01T00:21:26.844Z,1.20
2018-12-01T00:22:26.819Z,1.21
2018-12-01T00:23:26.815Z,1.20
2018-12-01T00:24:26.808Z,1.26
2018-12-01T00:25:26.820Z,1.24
2018-12-01T00:26:26.778Z,1.29
2018-12-01T00:27:26.767Z,1.26
2018-12-01T00:28:26.751Z,1.25
2018-12-01T00:29:26.754Z,1.25
2018-12-01T00:30:26.730Z,1.20
2018-12-01T00:31:26.765Z,1.32
2018-12-01T00:32:26.715Z,1.29
2018-12-01T00:33:26.700Z,1.29
2018-12-01T00:34:26.690Z,1.31
2018-12-01T00:35:26.688Z,1.34
2018-12-01T00:36:26.671Z,1.28
2018-12-01T00:37:26.674Z,1.32
2018-12-01T00:38:26.653Z,1.25
2018-12-01T00:39:26.641Z,1.26
2018-12-01T00:40:26.626Z,1.20
2018-12-01T00:41:26.626Z,1.21
2018-12-01T00:42:26.643Z,1.25
2018-12-01T00:43:26.597Z,1.16
2018-12-01T00:44:26.674Z,1.14
2018-12-01T00:45:26.575Z,1.14
2018-12-01T00:46:26.568Z,1.07
2018-12-01T00:47:26.554Z,1.14
2018-12-01T00:48:26.586Z,1.13
2018-12-01T00:49:26.532Z,1.04
2018-12-01T00:50:26.521Z,1.07
2018-12-01T00:51:26.509Z,1.14
2018-12-01T00:52:26.499Z,1.10
2018-12-01T00:53:26.497Z,1.25
2018-12-01T00:54:26.495Z,1.18
2018-12-01T00:55:26.475Z,1.18
2018-12-01T00:56:26.458Z,1.18
2018-12-01T00:57:26.449Z,1.13
2018-12-01T00:58:26.437Z,1.13
2018-12-01T00:59:26.487Z,1.17
2018-12-01T01:00:26.423Z,1.13
2018-12-01T01:01:26.405Z,1.10
2018-12-01T01:02:26.399Z,1.14
2018-12-01T01:03:26.393Z,1.11
2018-12-01T01:04:26.378Z,1.14
2018-12-01T01:05:26.409Z,1.13
2018-12-01T01:06:26.357Z,1.08
2018-12-01T01:07:26.341Z,1.06
2018-12-01T01:08:26.333Z,1.11
2018-12-01T01:09:26.321Z,1.06
2018-12-01T01:10:26.312Z,1.13
2018-12-01T01:11:26.314Z,1.14
2018-12-01T01:12:26.292Z,1.13
2018-12-01T01:13:26.287Z,1.13
2018-12-01T01:14:26.269Z,1.14
2018-12-01T01:15:26.269Z,1.08
2018-12-01T01:16:26.248Z,1.10
2018-12-01T01:17:26.247Z,1.11
2018-12-01T01:18:26.232Z,1.16
2018-12-01T01:19:26.227Z,1.13
2018-12-01T01:20:26.236Z,1.16
2018-12-01T01:21:26.195Z,1.16
2018-12-01T01:22:26.189Z,1.20
2018-12-01T01:23:26.184Z,1.24
2018-12-01T01:24:26.168Z,1.25
2018-12-01T01:25:26.152Z,1.18
2018-12-01T01:26:26.158Z,1.17
2018-12-01T01:27:26.137Z,1.21
2018-12-01T01:28:26.120Z,1.20
2018-12-01T01:29:26.116Z,1.10
2018-12-01T01:30:26.104Z,1.07
2018-12-01T01:31:26.129Z,1.13
2018-12-01T01:32:26.082Z,1.16
2018-12-01T01:33:26.075Z,1.11
2018-12-01T01:34:26.067Z,1.14
2018-12-01T01:35:26.050Z,1.11
2018-12-01T01:36:26.037Z,1.20
2018-12-01T01:37:26.065Z,1.18
2018-12-01T01:38:26.019Z,1.24
2018-12-01T01:39:26.014Z,1.16
2018-12-01T01:40:26.001Z,1.28
2018-12-01T01:41:25.992Z,1.17
2018-12-01T01:42:25.978Z,1.18
2018-12-01T01:43:25.978Z,1.26
2018-12-01T01:44:25.958Z,1.20
2018-12-01T01:45:25.954Z,1.20
2018-12-01T01:46:25.933Z,1.20
2018-12-01T01:47:25.926Z,1.21
2018-12-01T01:48:25.920Z,1.28
2018-12-01T01:49:25.903Z,1.17
2018-12-01T01:50:25.888Z,1.26
2018-12-01T01:51:25.897Z,1.21
2018-12-01T01:52:25.873Z,1.28
2018-12-01T01:53:25.869Z,1.20
2018-12-01T01:54:25.849Z,1.28
2018-12-01T01:55:25.840Z,1.26
2018-12-01T01:56:25.839Z,1.28
2018-12-01T01:57:25.870Z,1.26
2018-12-01T01:58:25.809Z,1.18
2018-12-01T01:59:25.805Z,1.25
2018-12-01T02:00:25.788Z,1.11
2018-12-01T02:01:25.781Z,1.10
2018-12-01T02:02:25.769Z,1.07
2018-12-01T02:03:25.767Z,1.08
2018-12-01T02:04:25.747Z,1.11
2018-12-01T02:05:25.745Z,1.18
2018-12-01T02:06:25.720Z,1.20
2018-12-01T02:07:25.717Z,1.10
2018-12-01T02:08:25.710Z,1.16
2018-12-01T02:09:25.705Z,1.21
2018-12-01T02:10:25.686Z,1.25
2018-12-01T02:11:25.666Z,1.17
2018-12-01T02:12:25.656Z,1.25
2018-12-01T02:13:25.661Z,1.25
2018-12-01T02:14:25.635Z,1.29
2018-12-01T02:15:25.647Z,1.32
2018-12-01T02:16:25.623Z,1.20
2018-12-01T02:17:25.622Z,1.29
2018-12-01T02:18:25.592Z,1.21
2018-12-01T02:19:25.588Z,1.26
2018-12-01T02:20:25.590Z,1.26
2018-12-01T02:21:25.567Z,1.32
2018-12-01T02:22:25.559Z,1.24
2018-12-01T02:23:25.553Z,1.17
2018-12-01T02:24:25.534Z,1.28
2018-12-01T02:25:25.530Z,1.24
2018-12-01T02:26:25.515Z,1.26
2018-12-01T02:27:25.503Z,1.20
2018-12-01T02:28:25.487Z,1.16
2018-12-01T02:29:25.482Z,1.28
2018-12-01T02:30:25.485Z,1.24
2018-12-01T02:31:25.466Z,1.25
2018-12-01T02:32:25.447Z,1.25
2018-12-01T02:33:25.434Z,1.26
2018-12-01T02:34:25.435Z,1.26
2018-12-01T02:35:25.454Z,1.31
2018-12-01T02:36:25.408Z,1.29
2018-12-01T02:37:25.402Z,1.28
2018-12-01T02:38:25.386Z,1.26
2018-12-01T02:39:25.375Z,1.31
2018-12-01T02:40:25.367Z,1.25
2018-12-01T02:41:25.364Z,1.28
2018-12-01T02:42:25.341Z,1.31
2018-12-01T02:43:25.335Z,1.36
2018-12-01T02:44:25.318Z,1.26
2018-12-01T02:45:25.318Z,1.29
2018-12-01T02:46:25.315Z,1.28
2018-12-01T02:47:25.292Z,1.24
2018-12-01T02:48:25.278Z,1.25
2018-12-01T02:49:25.271Z,1.26
2018-12-01T02:50:25.262Z,1.32
2018-12-01T02:51:25.286Z,1.20
2018-12-01T02:52:25.234Z,1.29
2018-12-01T02:53:25.225Z,1.32
2018-12-01T02:54:25.217Z,1.21
2018-12-01T02:55:25.207Z,1.28
2018-12-01T02:56:25.199Z,1.21
2018-12-01T02:57:25.195Z,1.28
2018-12-01T02:58:25.176Z,1.31
2018-12-01T02:59:25.179Z,1.26
2018-12-01T03:00:25.156Z,1.26
2018-12-01T03:01:25.144Z,1.34
2018-12-01T03:02:25.128Z,1.25
2018-12-01T03:03:25.135Z,1.32
2018-12-01T03:04:25.111Z,1.24
2018-12-01T03:05:25.103Z,1.29
2018-12-01T03:06:25.135Z,1.29
2018-12-01T03:07:25.080Z,1.43
2018-12-01T03:08:25.066Z,1.39
2018-12-01T03:09:25.060Z,1.39
2018-12-01T03:10:25.049Z,1.36
2018-12-01T03:11:25.033Z,1.35
2018-12-01T03:12:25.040Z,1.43
2018-12-01T03:13:25.013Z,1.42
2018-12-01T03:14:25.006Z,1.44
2018-12-01T03:15:24.996Z,1.35
2018-12-01T03:16:24.985Z,1.36
2018-12-01T03:17:24.992Z,1.44
2018-12-01T03:18:24.965Z,1.39
2018-12-01T03:19:24.953Z,1.31
2018-12-01T03:20:24.944Z,1.39
2018-12-01T03:21:24.948Z,1.36
2018-12-01T03:22:24.920Z,1.44
2018-12-01T03:23:24.923Z,1.38
2018-12-01T03:24:24.897Z,1.39
2018-12-01T03:25:24.890Z,1.35
2018-12-01T03:26:24.879Z,1.31
2018-12-01T03:27:24.876Z,1.39
2018-12-01T03:28:24.873Z,1.35
2018-12-01T03:29:24.853Z,1.38
2018-12-01T03:30:24.843Z,1.44
2018-12-01T03:31:24.836Z,1.38
2018-12-01T03:32:24.817Z,1.29
2018-12-01T03:33:24.805Z,1.39
2018-12-01T03:34:24.804Z,1.28
2018-12-01T03:35:24.800Z,1.34
2018-12-01T03:36:24.777Z,1.34
2018-12-01T03:37:24.764Z,1.25
2018-12-01T03:38:24.766Z,1.32
2018-12-01T03:39:24.744Z,1.29
2018-12-01T03:40:24.767Z,1.26
2018-12-01T03:41:24.730Z,1.29
2018-12-01T03:42:24.718Z,1.35
2018-12-01T03:43:24.697Z,1.28
2018-12-01T03:44:24.687Z,1.26
2018-12-01T03:45:24.681Z,1.29
2018-12-01T03:46:38.734Z,1.35
2018-12-01T03:47:24.659Z,1.34
2018-12-01T03:48:24.642Z,1.39
2018-12-01T03:49:24.638Z,1.32
2018-12-01T03:50:24.662Z,1.31
2018-12-01T03:51:24.617Z,1.25
2018-12-01T03:52:24.608Z,1.29
2018-12-01T03:53:24.596Z,1.29
2018-12-01T03:54:24.581Z,1.26
2018-12-01T03:55:24.570Z,1.34
2018-12-01T03:56:24.589Z,1.34
2018-12-01T03:57:24.554Z,1.35
2018-12-01T03:58:24.561Z,1.34
2018-12-01T03:59:24.532Z,1.34
2018-12-01T04:00:24.524Z,1.29
2018-12-01T04:01:24.523Z,1.29
2018-12-01T04:02:24.503Z,1.35
2018-12-01T04:03:24.490Z,1.42
2018-12-01T04:04:24.487Z,1.36
2018-12-01T04:05:24.470Z,1.35
2018-12-01T04:06:24.502Z,1.35
2018-12-01T04:07:24.446Z,1.36
2018-12-01T04:08:24.443Z,1.36
2018-12-01T04:09:24.433Z,1.38
2018-12-01T04:10:24.419Z,1.38
2018-12-01T04:11:24.409Z,1.42
2018-12-01T04:12:24.434Z,1.38
2018-12-01T04:13:24.387Z,1.44
2018-12-01T04:14:24.374Z,1.34
2018-12-01T04:15:24.372Z,1.38
2018-12-01T04:16:24.356Z,1.42
2018-12-01T04:17:24.347Z,1.36
2018-12-01T04:18:24.349Z,1.38
2018-12-01T04:19:24.319Z,1.36
2018-12-01T04:20:24.318Z,1.34
2018-12-01T04:21:24.304Z,1.32
2018-12-01T04:22:24.328Z,1.36
2018-12-01T04:23:24.295Z,1.39
2018-12-01T04:24:24.273Z,1.42
2018-12-01T04:25:24.258Z,1.36
2018-12-01T04:26:24.249Z,1.42
2018-12-01T04:27:24.245Z,1.39
2018-12-01T04:28:24.246Z,1.36
2018-12-01T04:29:24.222Z,1.42
2018-12-01T04:30:24.205Z,1.42
2018-12-01T04:31:24.204Z,1.46
2018-12-01T04:32:24.189Z,1.42
2018-12-01T04:33:24.213Z,1.42
2018-12-01T04:34:24.179Z,1.39
2018-12-01T04:35:24.153Z,1.39
2018-12-01T04:36:24.148Z,1.39
2018-12-01T04:37:24.133Z,1.36
2018-12-01T04:38:24.132Z,1.44
2018-12-01T04:39:24.122Z,1.39
2018-12-01T04:40:24.109Z,1.39
2018-12-01T04:41:24.109Z,1.46
2018-12-01T04:42:24.081Z,1.47
2018-12-01T04:43:24.081Z,1.54
2018-12-01T04:44:24.064Z,1.46
2018-12-01T04:45:24.050Z,1.49
2018-12-01T04:46:24.043Z,1.47
2018-12-01T04:47:24.028Z,1.50
2018-12-01T04:48:24.023Z,1.50
2018-12-01T04:49:24.025Z,1.49
2018-12-01T04:50:24.002Z,1.47
2018-12-01T04:51:24.005Z,1.49
2018-12-01T04:52:23.988Z,1.53
2018-12-01T04:53:23.975Z,1.53
2018-12-01T04:54:23.983Z,1.53
2018-12-01T04:55:23.953Z,1.50
2018-12-01T04:56:23.938Z,1.47
2018-12-01T04:57:23.927Z,1.43
2018-12-01T04:58:23.934Z,1.46
2018-12-01T04:59:23.904Z,1.46
2018-12-01T05:00:23.903Z,1.52
2018-12-01T05:01:23.883Z,1.44
2018-12-01T05:02:23.883Z,1.47
2018-12-01T05:03:23.879Z,1.50
2018-12-01T05:04:23.856Z,1.61
2018-12-01T05:05:23.850Z,1.52
2018-12-01T05:06:23.830Z,1.57
2018-12-01T05:07:23.824Z,1.54
2018-12-01T05:08:23.855Z,1.60
2018-12-01T05:09:23.801Z,1.57
2018-12-01T05:10:23.795Z,1.57
2018-12-01T05:11:23.783Z,1.52
2018-12-01T05:12:23.769Z,1.54
2018-12-01T05:13:23.760Z,1.54
2018-12-01T05:14:23.763Z,1.65
2018-12-01T05:15:23.765Z,1.63
2018-12-01T05:16:23.739Z,1.63
2018-12-01T05:17:23.717Z,1.53
2018-12-01T05:18:23.710Z,1.52
2018-12-01T05:19:23.697Z,1.49
2018-12-01T05:20:23.687Z,1.57
2018-12-01T05:21:23.689Z,1.56
2018-12-01T05:22:23.669Z,1.57
2018-12-01T05:23:23.659Z,1.53
2018-12-01T05:24:23.646Z,1.60
2018-12-01T05:25:23.645Z,1.54
2018-12-01T05:26:23.634Z,1.56
2018-12-01T05:27:23.615Z,1.57
2018-12-01T05:28:23.619Z,1.57
2018-12-01T05:29:23.592Z,1.56
2018-12-01T05:30:23.586Z,1.54
2018-12-01T05:31:23.618Z,1.54
2018-12-01T05:32:23.565Z,1.50
2018-12-01T05:33:23.549Z,1.53
2018-12-01T05:34:23.546Z,1.60
2018-12-01T05:35:23.534Z,1.49
2018-12-01T05:36:23.530Z,1.57
2018-12-01T05:37:23.515Z,1.46
2018-12-01T05:38:23.512Z,1.57
2018-12-01T05:39:23.491Z,1.53
2018-12-01T05:40:23.482Z,1.57
2018-12-01T05:41:23.465Z,1.49
2018-12-01T05:42:23.477Z,1.54
2018-12-01T05:43:23.456Z,1.56
2018-12-01T05:44:23.440Z,1.60
2018-12-01T05:45:23.431Z,1.52
2018-12-01T05:46:23.421Z,1.56
2018-12-01T05:47:23.413Z,1.54
2018-12-01T05:48:23.432Z,1.53
2018-12-01T05:49:23.396Z,1.54
2018-12-01T05:50:23.372Z,1.60
2018-12-01T05:51:23.361Z,1.54
2018-12-01T05:52:23.359Z,1.54
2018-12-01T05:53:23.341Z,1.60
2018-12-01T05:54:23.346Z,1.61
2018-12-01T05:55:23.322Z,1.52
2018-12-01T05:56:23.358Z,1.57
2018-12-01T05:57:23.306Z,1.53
2018-12-01T05:58:23.294Z,1.53
2018-12-01T05:59:23.297Z,1.60
2018-12-01T06:00:23.277Z,1.52
2018-12-01T06:01:23.263Z,1.56
2018-12-01T06:02:23.296Z,1.52
2018-12-01T06:03:23.241Z,1.54
2018-12-01T06:04:23.265Z,1.60
2018-12-01T06:05:23.222Z,1.47
2018-12-01T06:06:23.210Z,1.61
2018-12-01T06:07:23.193Z,1.60
2018-12-01T06:08:23.185Z,1.60
2018-12-01T06:09:23.173Z,1.57
2018-12-01T06:10:23.235Z,1.54
2018-12-01T06:11:23.159Z,1.47
2018-12-01T06:12:23.152Z,1.53
2018-12-01T06:13:23.131Z,1.61
2018-12-01T06:14:23.129Z,1.56
2018-12-01T06:15:23.116Z,1.56
2018-12-01T06:16:23.122Z,1.52
2018-12-01T06:17:23.091Z,1.56
2018-12-01T06:18:23.085Z,1.65
2018-12-01T06:19:23.069Z,1.61
2018-12-01T06:20:23.070Z,1.70
2018-12-01T06:21:23.069Z,1.64
2018-12-01T06:22:23.046Z,1.65
2018-12-01T06:23:23.031Z,1.64
2018-12-01T06:24:23.015Z,1.67
2018-12-01T06:25:23.012Z,1.65
2018-12-01T06:26:23.006Z,1.65
2018-12-01T06:27:22.991Z,1.64
2018-12-01T06:28:22.978Z,1.71
2018-12-01T06:29:22.971Z,1.81
2018-12-01T06:30:22.953Z,1.83
2018-12-01T06:31:22.960Z,1.81
2018-12-01T06:32:22.932Z,1.81
2018-12-01T06:33:22.932Z,1.89
2018-12-01T06:34:22.930Z,1.90
2018-12-01T06:35:22.902Z,1.82
2018-12-01T06:36:22.891Z,1.89
2018-12-01T06:37:22.893Z,1.86
2018-12-01T06:38:22.875Z,1.82
2018-12-01T06:39:22.859Z,1.81
2018-12-01T06:40:22.873Z,1.77
2018-12-01T06:41:22.845Z,1.81
2018-12-01T06:42:22.829Z,1.81
2018-12-01T06:43:22.836Z,1.77
2018-12-01T06:44:22.818Z,1.77
2018-12-01T06:45:22.797Z,1.81
2018-12-01T06:46:22.794Z,1.83
2018-12-01T06:47:22.781Z,1.75
2018-12-01T06:48:22.778Z,1.89
2018-12-01T06:49:22.756Z,1.82
2018-12-01T06:50:22.748Z,1.75
2018-12-01T06:51:22.740Z,1.72
2018-12-01T06:52:22.726Z,1.79
2018-12-01T06:53:22.752Z,1.75
2018-12-01T06:54:22.711Z,1.74
2018-12-01T06:55:22.709Z,1.77
2018-12-01T06:56:22.688Z,1.75
2018-12-01T06:57:22.673Z,1.83
2018-12-01T06:58:22.669Z,1.82
2018-12-01T06:59:22.684Z,1.82
2018-12-01T07:00:22.650Z,1.79
2018-12-01T07:01:22.634Z,1.85
2018-12-01T07:02:22.622Z,1.79
2018-12-01T07:03:22.611Z,1.83
2018-12-01T07:04:22.603Z,1.83
2018-12-01T07:05:22.613Z,1.77
2018-12-01T07:06:22.592Z,1.82
2018-12-01T07:07:22.569Z,1.82
2018-12-01T07:08:22.557Z,1.75
2018-12-01T07:09:22.557Z,1.75
2018-12-01T07:10:22.585Z,1.79
2018-12-01T07:11:22.551Z,1.86
2018-12-01T07:12:22.541Z,1.85
2018-12-01T07:13:22.513Z,1.79
2018-12-01T07:14:22.501Z,1.77
2018-12-01T07:15:22.493Z,1.85
2018-12-01T07:16:22.517Z,1.86
2018-12-01T07:17:22.498Z,1.89
2018-12-01T07:18:22.454Z,1.90
2018-12-01T07:19:22.444Z,1.92
2018-12-01T07:20:22.440Z,1.92
2018-12-01T07:21:22.428Z,2.01
2018-12-01T07:22:22.425Z,1.93
2018-12-01T07:23:22.415Z,1.95
2018-12-01T07:24:22.394Z,2.01
2018-12-01T07:25:22.388Z,1.98
2018-12-01T07:26:22.377Z,1.95
2018-12-01T07:27:22.377Z,1.98
2018-12-01T07:28:22.358Z,1.93
2018-12-01T07:29:22.345Z,2.00
2018-12-01T07:30:22.370Z,1.93
2018-12-01T07:31:22.319Z,1.98
2018-12-01T07:32:22.328Z,2.02
2018-12-01T07:33:22.305Z,2.02
2018-12-01T07:34:22.300Z,2.02
2018-12-01T07:35:22.290Z,2.02
2018-12-01T07:36:22.280Z,2.07
2018-12-01T07:37:22.298Z,2.04
2018-12-01T07:38:22.254Z,2.11
2018-12-01T07:39:22.237Z,2.09
2018-12-01T07:40:22.237Z,2.09
2018-12-01T07:41:22.215Z,2.11
2018-12-01T07:42:22.205Z,2.07
2018-12-01T07:43:22.211Z,2.05
2018-12-01T07:44:22.212Z,2.07
2018-12-01T07:45:22.180Z,2.05
2018-12-01T07:46:22.163Z,2.09
2018-12-01T07:47:22.170Z,2.04
2018-12-01T07:48:22.159Z,2.05
2018-12-01T07:49:22.131Z,2.08
2018-12-01T07:50:22.125Z,2.20
2018-12-01T07:51:22.119Z,2.14
2018-12-01T07:52:22.102Z,2.22
2018-12-01T07:53:22.119Z,2.27
2018-12-01T07:54:22.079Z,2.15
2018-12-01T07:55:22.082Z,2.25
2018-12-01T07:56:22.061Z,2.20
2018-12-01T07:57:22.055Z,2.19
2018-12-01T07:58:22.077Z,2.20
2018-12-01T07:59:22.028Z,2.23
2018-12-01T08:00:22.019Z,2.23
2018-12-01T08:01:22.010Z,2.19
2018-12-01T08:02:22.019Z,2.18
2018-12-01T08:03:22.011Z,2.23
2018-12-01T08:04:22.036Z,2.23
2018-12-01T08:05:21.967Z,2.26
2018-12-01T08:06:21.957Z,2.23
2018-12-01T08:07:21.951Z,2.26
2018-12-01T08:08:21.937Z,2.22
2018-12-01T08:09:21.935Z,2.36
2018-12-01T08:10:21.931Z,2.23
2018-12-01T08:11:21.917Z,2.36
2018-12-01T08:12:21.900Z,2.29
2018-12-01T08:13:21.884Z,2.27
2018-12-01T08:14:21.885Z,2.30
2018-12-01T08:15:21.929Z,2.43
2018-12-01T08:16:21.852Z,2.38
2018-12-01T08:17:21.861Z,2.40
2018-12-01T08:18:21.835Z,2.43
2018-12-01T08:19:21.826Z,2.38
2018-12-01T08:20:21.811Z,2.45
2018-12-01T08:21:21.851Z,2.44
2018-12-01T08:22:21.793Z,2.51
2018-12-01T08:23:21.783Z,2.59
2018-12-01T08:24:21.768Z,2.48
2018-12-01T08:25:21.765Z,2.48
2018-12-01T08:26:21.757Z,2.55
2018-12-01T08:27:21.746Z,2.61
2018-12-01T08:28:21.735Z,2.62
2018-12-01T08:29:21.715Z,2.65
2018-12-01T08:30:21.715Z,2.62
2018-12-01T08:31:21.696Z,2.69
2018-12-01T08:32:21.727Z,2.55
2018-12-01T08:33:21.673Z,2.62
2018-12-01T08:34:21.674Z,2.66
2018-12-01T08:35:21.652Z,2.71
2018-12-01T08:36:21.651Z,2.73
2018-12-01T08:37:21.640Z,2.71
2018-12-01T08:38:21.643Z,2.81
2018-12-01T08:39:21.607Z,2.89
2018-12-01T08:40:21.604Z,2.86
2018-12-01T08:41:21.589Z,2.87
2018-12-01T08:42:21.581Z,2.83
2018-12-01T08:43:21.578Z,2.84
2018-12-01T08:44:21.558Z,2.80
2018-12-01T08:45:21.552Z,2.90
2018-12-01T08:46:21.561Z,2.84
2018-12-01T08:47:21.543Z,2.90
2018-12-01T08:48:21.537Z,2.86
2018-12-01T08:49:21.510Z,2.97
2018-12-01T08:50:21.514Z,2.94
2018-12-01T08:51:21.498Z,3.02
2018-12-01T08:52:21.486Z,3.02
2018-12-01T08:53:21.514Z,3.02
2018-12-01T08:54:21.449Z,3.08
2018-12-01T08:55:21.441Z,3.13
2018-12-01T08:56:21.429Z,3.22
2018-12-01T08:57:21.418Z,3.07
2018-12-01T08:58:21.412Z,3.25
2018-12-01T08:59:21.427Z,3.30
2018-12-01T09:00:21.386Z,3.20
2018-12-01T09:01:21.384Z,3.19
2018-12-01T09:02:21.374Z,3.31
2018-12-01T09:03:21.360Z,3.25
2018-12-01T09:04:21.350Z,3.37
2018-12-01T09:05:21.364Z,3.34
2018-12-01T09:06:21.324Z,3.30
2018-12-01T09:07:21.318Z,3.41
2018-12-01T09:08:21.312Z,3.39
2018-12-01T09:09:21.298Z,3.53
2018-12-01T09:10:21.296Z,3.46
2018-12-01T09:11:21.275Z,3.59
2018-12-01T09:12:21.267Z,3.59
2018-12-01T09:13:21.256Z,3.71
2018-12-01T09:14:21.248Z,3.89
2018-12-01T09:15:21.251Z,4.06
2018-12-01T09:16:21.225Z,4.08
2018-12-01T09:17:21.210Z,4.18
2018-12-01T09:18:21.198Z,4.31
2018-12-01T09:19:21.195Z,4.36
2018-12-01T09:20:21.180Z,4.56
2018-12-01T09:21:21.189Z,4.51
2018-12-01T09:22:21.159Z,4.61
2018-12-01T09:23:21.150Z,4.56
2018-12-01T09:24:21.140Z,4.72
2018-12-01T09:25:21.130Z,4.80
2018-12-01T09:26:21.717Z,4.93
2018-12-01T09:27:22.680Z,4.96
2018-12-01T09:28:21.096Z,5.06
2018-12-01T09:29:21.084Z,4.97
2018-12-01T09:30:21.113Z,4.80
2018-12-01T09:31:21.067Z,4.83
2018-12-01T09:32:21.058Z,4.69
2018-12-01T09:33:21.040Z,4.69
2018-12-01T09:34:21.035Z,4.69
2018-12-01T09:35:21.023Z,4.72
2018-12-01T09:36:21.014Z,4.69
2018-12-01T09:37:21.041Z,4.72
2018-12-01T09:38:20.991Z,4.72
2018-12-01T09:39:20.985Z,4.64
2018-12-01T09:40:20.968Z,4.68
2018-12-01T09:41:20.955Z,4.75
2018-12-01T09:42:24.803Z,4.65
2018-12-01T09:43:20.946Z,4.69
2018-12-01T09:44:20.928Z,4.69
2018-12-01T09:45:20.916Z,4.79
2018-12-01T09:46:20.907Z,4.74
2018-12-01T09:47:20.899Z,4.74
2018-12-01T09:48:20.933Z,4.83
2018-12-01T09:49:20.891Z,4.91
2018-12-01T09:50:20.865Z,4.88
2018-12-01T09:51:20.851Z,4.90
2018-12-01T09:52:20.854Z,4.87
2018-12-01T09:53:20.833Z,4.91
2018-12-01T09:54:20.841Z,4.87
2018-12-01T09:55:20.814Z,4.86
2018-12-01T09:56:20.818Z,4.94
2018-12-01T09:57:20.793Z,4.80
2018-12-01T09:58:20.781Z,4.84
2018-12-01T09:59:20.776Z,4.88
2018-12-01T10:00:20.764Z,4.94
2018-12-01T10:01:20.755Z,5.01
2018-12-01T10:02:20.735Z,5.08
2018-12-01T10:03:20.728Z,5.14
2018-12-01T10:04:20.726Z,5.19
2018-12-01T10:05:20.704Z,5.27
2018-12-01T10:06:20.747Z,5.27
2018-12-01T10:07:20.681Z,5.27
2018-12-01T10:08:20.677Z,5.27
2018-12-01T10:09:20.660Z,5.29
2018-12-01T10:10:20.654Z,5.24
2018-12-01T10:11:20.643Z,5.24
2018-12-01T10:12:20.644Z,5.24
2018-12-01T10:13:20.628Z,5.17
2018-12-01T10:14:20.619Z,5.22
2018-12-01T10:15:20.600Z,5.15
2018-12-01T10:16:20.593Z,5.14
2018-12-01T10:17:20.583Z,5.26
2018-12-01T10:18:20.562Z,5.15
2018-12-01T10:19:20.557Z,5.23
2018-12-01T10:20:20.556Z,5.27
2018-12-01T10:21:20.538Z,5.32
2018-12-01T10:22:20.537Z,5.30
2018-12-01T10:23:20.516Z,5.33
2018-12-01T10:24:20.506Z,5.35
2018-12-01T10:25:20.493Z,5.40
2018-12-01T10:26:20.493Z,5.35
2018-12-01T10:27:20.489Z,5.49
2018-12-01T10:28:20.455Z,5.48
2018-12-01T10:29:20.450Z,5.59
2018-12-01T10:30:20.439Z,5.73
2018-12-01T10:31:20.424Z,5.69
2018-12-01T10:32:20.422Z,5.74
2018-12-01T10:33:20.409Z,5.60
2018-12-01T10:34:20.407Z,5.63
2018-12-01T10:35:20.382Z,5.62
2018-12-01T10:36:20.371Z,5.49
2018-12-01T10:37:20.361Z,5.59
2018-12-01T10:38:20.353Z,5.62
2018-12-01T10:39:20.356Z,5.55
2018-12-01T10:40:20.342Z,5.56
2018-12-01T10:41:20.319Z,5.60
2018-12-01T10:42:20.323Z,5.47
2018-12-01T10:43:20.304Z,5.62
2018-12-01T10:44:20.307Z,5.62
2018-12-01T10:45:20.284Z,5.60
2018-12-01T10:46:20.275Z,5.70
2018-12-01T10:47:20.254Z,5.74
2018-12-01T10:48:20.247Z,5.78
2018-12-01T10:49:20.237Z,5.74
2018-12-01T10:50:20.234Z,5.81
2018-12-01T10:51:20.213Z,5.75
2018-12-01T10:52:20.201Z,5.78
2018-12-01T10:53:20.194Z,5.87
2018-12-01T10:54:20.183Z,5.90
2018-12-01T10:55:20.188Z,5.87
2018-12-01T10:56:20.168Z,5.98
2018-12-01T10:57:20.149Z,5.98
2018-12-01T10:58:20.137Z,6.05
2018-12-01T10:59:20.131Z,6.06
2018-12-01T11:00:20.112Z,6.06
2018-12-01T11:01:20.131Z,6.08
2018-12-01T11:02:20.094Z,6.08
2018-12-01T11:03:20.085Z,6.05
2018-12-01T11:04:20.072Z,6.14
2018-12-01T11:05:20.061Z,6.14
2018-12-01T11:06:20.062Z,6.11
2018-12-01T11:07:20.046Z,6.28
2018-12-01T11:08:20.037Z,6.17
2018-12-01T11:09:20.032Z,6.20
2018-12-01T11:10:20.016Z,6.27
2018-12-01T11:11:20.045Z,6.36
2018-12-01T11:12:19.991Z,6.30
2018-12-01T11:13:19.983Z,6.33
2018-12-01T11:14:20.013Z,6.25
2018-12-01T11:15:19.962Z,6.24
2018-12-01T11:16:20.733Z,6.35
2018-12-01T11:17:19.994Z,6.38
2018-12-01T11:18:19.926Z,6.33
2018-12-01T11:19:19.989Z,6.42
2018-12-01T11:20:19.901Z,6.48
2018-12-01T11:21:19.897Z,6.60
2018-12-01T11:22:19.948Z,6.61
2018-12-01T11:23:19.924Z,6.63
2018-12-01T11:24:19.862Z,6.68
2018-12-01T11:25:19.853Z,6.63
2018-12-01T11:26:19.882Z,6.51
2018-12-01T11:27:19.830Z,6.72
2018-12-01T11:28:19.829Z,6.69
2018-12-01T11:29:19.821Z,6.93
2018-12-01T11:30:19.798Z,6.83
2018-12-01T11:31:19.791Z,6.73
2018-12-01T11:32:19.778Z,6.76
2018-12-01T11:33:19.765Z,6.82
2018-12-01T11:34:19.759Z,6.72
2018-12-01T11:35:19.747Z,6.76
2018-12-01T11:36:19.730Z,6.81
2018-12-01T11:37:19.721Z,6.78
2018-12-01T11:38:19.713Z,6.79
2018-12-01T11:39:19.706Z,6.71
2018-12-01T11:40:19.693Z,6.72
2018-12-01T11:41:19.674Z,6.81
2018-12-01T11:42:20.085Z,6.81
2018-12-01T11:43:19.766Z,6.96
2018-12-01T11:44:19.647Z,6.76
2018-12-01T11:45:19.683Z,6.82
2018-12-01T11:46:19.717Z,6.75
2018-12-01T11:47:19.615Z,6.75
2018-12-01T11:48:19.606Z,6.91
2018-12-01T11:49:19.597Z,6.94
2018-12-01T11:50:19.585Z,6.94
2018-12-01T11:51:19.584Z,7.04
2018-12-01T11:52:19.707Z,7.01
2018-12-01T11:53:19.548Z,6.96
2018-12-01T11:54:19.547Z,6.91
2018-12-01T11:55:19.533Z,6.91
2018-12-01T11:56:19.530Z,6.91
2018-12-01T11:57:19.503Z,6.83
2018-12-01T11:58:19.498Z,6.81
2018-12-01T11:59:19.482Z,6.69
2018-12-01T12:00:19.485Z,6.89
2018-12-01T12:01:19.476Z,6.81
2018-12-01T12:02:19.458Z,6.75
2018-12-01T12:03:19.456Z,6.71
2018-12-01T12:04:19.437Z,6.73
2018-12-01T12:05:19.419Z,6.71
2018-12-01T12:06:19.407Z,6.71
2018-12-01T12:07:19.439Z,6.57
2018-12-01T12:08:19.390Z,6.68
2018-12-01T12:09:19.384Z,6.61
2018-12-01T12:10:19.365Z,6.69
2018-12-01T12:11:19.392Z,6.69
2018-12-01T12:12:19.350Z,6.71
2018-12-01T12:13:19.370Z,6.71
2018-12-01T12:14:19.322Z,6.76
2018-12-01T12:15:19.316Z,6.81
2018-12-01T12:16:19.307Z,6.79
2018-12-01T12:17:19.289Z,6.82
2018-12-01T12:18:19.279Z,6.82
2018-12-01T12:19:19.284Z,6.78
2018-12-01T12:20:19.263Z,6.78
2018-12-01T12:21:19.246Z,6.75
2018-12-01T12:22:19.242Z,6.73
2018-12-01T12:23:19.230Z,6.81
2018-12-01T12:24:19.230Z,6.79
2018-12-01T12:25:19.205Z,6.75
2018-12-01T12:26:19.199Z,6.75
2018-12-01T12:27:19.235Z,6.79
2018-12-01T12:28:19.178Z,6.78
2018-12-01T12:29:19.179Z,6.81
2018-12-01T12:30:19.152Z,6.79
2018-12-01T12:31:19.145Z,6.81
2018-12-01T12:32:19.141Z,6.78
2018-12-01T12:33:19.121Z,6.83
2018-12-01T12:34:19.114Z,6.69
2018-12-01T12:35:19.109Z,6.79
2018-12-01T12:36:19.089Z,6.83
2018-12-01T12:37:19.092Z,6.75
2018-12-01T12:38:19.074Z,6.75
2018-12-01T12:39:19.058Z,6.73
2018-12-01T12:40:19.053Z,6.87
2018-12-01T12:41:19.051Z,6.87
2018-12-01T12:42:19.328Z,6.83
2018-12-01T12:43:19.740Z,6.82
2018-12-01T12:44:19.028Z,6.75
2018-12-01T12:45:19.001Z,6.79
2018-12-01T12:46:18.982Z,6.72
2018-12-01T12:47:18.980Z,6.87
2018-12-01T12:48:18.974Z,6.72
2018-12-01T12:49:18.951Z,6.75
2018-12-01T12:50:18.946Z,6.73
2018-12-01T12:51:18.929Z,6.91
2018-12-01T12:52:18.963Z,6.73
2018-12-01T12:53:18.912Z,6.93
2018-12-01T12:54:18.904Z,6.78
2018-12-01T12:55:18.891Z,6.87
2018-12-01T12:56:18.882Z,6.86
2018-12-01T12:57:18.866Z,6.89
2018-12-01T12:58:18.864Z,6.75
2018-12-01T12:59:18.849Z,6.78
2018-12-01T13:00:18.833Z,6.79
2018-12-01T13:01:18.827Z,6.79
2018-12-01T13:02:18.851Z,6.79
2018-12-01T13:03:18.870Z,6.75
2018-12-01T13:04:18.790Z,6.75
2018-12-01T13:05:18.779Z,6.76
2018-12-01T13:06:18.788Z,6.78
2018-12-01T13:07:18.762Z,6.68
2018-12-01T13:08:18.763Z,6.75
2018-12-01T13:09:18.738Z,6.79
2018-12-01T13:10:18.732Z,6.75
2018-12-01T13:11:18.763Z,6.73
2018-12-01T13:12:18.710Z,6.79
2018-12-01T13:13:18.701Z,6.69
2018-12-01T13:14:18.695Z,6.81
2018-12-01T13:15:18.674Z,6.75
2018-12-01T13:16:18.668Z,6.81
2018-12-01T13:17:18.683Z,6.79
2018-12-01T13:18:18.654Z,6.78